createdAt,value
2023-02-24T00:00:37.271Z,1012.05
2023-02-24T00:01:38.211Z,1012.06
2023-02-24T00:02:37.249Z,1011.96
2023-02-24T00:03:37.293Z,1012.03
2023-02-24T00:04:37.191Z,1012.10
2023-02-24T00:05:37.183Z,1012.02
2023-02-24T00:06:37.168Z,1011.90
2023-02-24T00:07:37.180Z,1012.07
2023-02-24T00:08:37.184Z,1011.99
2023-02-24T00:09:37.441Z,1012.05
2023-02-24T00:10:37.121Z,1011.98
2023-02-24T00:11:37.130Z,1011.94
2023-02-24T00:12:37.090Z,1011.89
2023-02-24T00:13:37.084Z,1011.93
2023-02-24T00:14:37.091Z,1011.86
2023-02-24T00:15:37.094Z,1011.87
2023-02-24T00:16:37.159Z,1011.90
2023-02-24T00:17:37.031Z,1011.86
2023-02-24T00:18:37.021Z,1011.88
2023-02-24T00:19:37.020Z,1011.84
2023-02-24T00:20:37.274Z,1011.86
2023-02-24T00:21:37.027Z,1011.86
2023-02-24T00:22:36.981Z,1011.80
2023-02-24T00:23:36.961Z,1011.86
2023-02-24T00:24:36.955Z,1011.81
2023-02-24T00:25:36.931Z,1011.92
2023-02-24T00:26:36.932Z,1011.82
2023-02-24T00:27:36.932Z,1011.81
2023-02-24T00:28:36.903Z,1011.78
2023-02-24T00:29:36.886Z,1011.82
2023-02-24T00:30:36.886Z,1011.84
2023-02-24T00:31:37.009Z,1011.86
2023-02-24T00:32:37.231Z,1011.87
2023-02-24T00:33:36.869Z,1011.85
2023-02-24T00:34:40.659Z,1011.85
2023-02-24T00:35:36.823Z,1011.83
2023-02-24T00:36:36.829Z,1011.85
2023-02-24T00:37:37.052Z,1011.85
2023-02-24T00:38:36.774Z,1011.82
2023-02-24T00:39:38.444Z,1011.81
2023-02-24T00:40:36.754Z,1011.81
2023-02-24T00:41:37.014Z,1011.80
2023-02-24T00:42:36.725Z,1011.80
2023-02-24T00:43:36.716Z,1011.75
2023-02-24T00:44:36.705Z,1011.77
2023-02-24T00:45:36.724Z,1011.85
2023-02-24T00:46:36.766Z,1011.74
2023-02-24T00:47:36.668Z,1011.73
2023-02-24T00:48:36.655Z,1011.77
2023-02-24T00:49:36.667Z,1011.75
2023-02-24T00:50:36.629Z,1011.78
2023-02-24T00:51:36.638Z,1011.72
2023-02-24T00:52:36.637Z,1011.71
2023-02-24T00:53:36.623Z,1011.63
2023-02-24T00:54:36.577Z,1011.61
2023-02-24T00:55:36.596Z,1011.61
2023-02-24T00:56:40.348Z,1011.61
2023-02-24T00:57:41.757Z,1011.54
2023-02-24T00:58:36.549Z,1011.62
2023-02-24T00:59:36.521Z,1011.59
2023-02-24T01:00:36.502Z,1011.57
2023-02-24T01:01:37.480Z,1011.52
2023-02-24T01:02:37.160Z,1011.51
2023-02-24T01:03:36.536Z,1011.54
2023-02-24T01:04:36.453Z,1011.59
2023-02-24T01:05:36.454Z,1011.52
2023-02-24T01:06:36.441Z,1011.48
2023-02-24T01:07:36.419Z,1011.43
2023-02-24T01:08:36.691Z,1011.42
2023-02-24T01:09:36.432Z,1011.47
2023-02-24T01:10:36.381Z,1011.43
2023-02-24T01:11:36.413Z,1011.41
2023-02-24T01:12:36.376Z,1011.42
2023-02-24T01:13:36.348Z,1011.40
2023-02-24T01:14:36.342Z,1011.36
2023-02-24T01:15:36.337Z,1011.33
2023-02-24T01:16:36.313Z,1011.34
2023-02-24T01:17:36.973Z,1011.37
2023-02-24T01:18:36.302Z,1011.36
2023-02-24T01:19:36.263Z,1011.29
2023-02-24T01:20:36.254Z,1011.30
2023-02-24T01:21:36.263Z,1011.33
2023-02-24T01:22:36.233Z,1011.32
2023-02-24T01:23:36.224Z,1011.29
2023-02-24T01:24:36.217Z,1011.33
2023-02-24T01:25:36.198Z,1011.30
2023-02-24T01:26:36.186Z,1011.16
2023-02-24T01:27:36.205Z,1011.14
2023-02-24T01:28:36.158Z,1011.14
2023-02-24T01:29:36.151Z,1011.09
2023-02-24T01:30:36.140Z,1011.08
2023-02-24T01:31:36.297Z,1011.09
2023-02-24T01:32:36.357Z,1011.12
2023-02-24T01:38:22.042Z,1011.05
2023-02-24T01:39:21.542Z,1010.99
2023-02-24T01:40:22.022Z,1011.05
2023-02-24T01:41:21.813Z,1011.05
2023-02-24T01:42:22.461Z,1011.01
2023-02-24T01:44:33.551Z,1011.02
2023-02-24T01:45:33.513Z,1010.97
2023-02-24T01:46:33.511Z,1010.93
2023-02-24T01:47:33.498Z,1010.93
2023-02-24T01:48:33.456Z,1010.88
2023-02-24T01:49:33.462Z,1010.83
2023-02-24T01:50:33.439Z,1010.95
2023-02-24T01:51:33.427Z,1010.86
2023-02-24T01:52:33.405Z,1010.93
2023-02-24T01:53:33.418Z,1010.77
2023-02-24T01:54:33.387Z,1010.76
2023-02-24T01:55:33.406Z,1010.75
2023-02-24T01:56:33.376Z,1010.83
2023-02-24T01:57:33.348Z,1010.82
2023-02-24T01:58:33.586Z,1010.76
2023-02-24T01:59:34.117Z,1010.73
2023-02-24T02:00:33.308Z,1010.66
2023-02-24T02:01:33.346Z,1010.72
2023-02-24T02:02:33.431Z,1010.74
2023-02-24T02:03:33.305Z,1010.69
2023-02-24T02:04:33.262Z,1010.79
2023-02-24T02:05:33.258Z,1010.66
2023-02-24T02:06:33.269Z,1010.67
2023-02-24T02:07:33.261Z,1010.69
2023-02-24T02:08:33.224Z,1010.62
2023-02-24T02:09:33.215Z,1010.54
2023-02-24T02:10:33.201Z,1010.63
2023-02-24T02:11:33.193Z,1010.55
2023-02-24T02:12:33.175Z,1010.52
2023-02-24T02:13:33.231Z,1010.47
2023-02-24T02:14:33.378Z,1010.50
2023-02-24T02:15:33.153Z,1010.52
2023-02-24T02:16:33.193Z,1010.49
2023-02-24T02:17:33.111Z,1010.45
2023-02-24T02:18:33.103Z,1010.42
2023-02-24T02:19:33.126Z,1010.36
2023-02-24T02:20:33.078Z,1010.46
2023-02-24T02:21:33.082Z,1010.44
2023-02-24T02:22:33.053Z,1010.39
2023-02-24T02:23:33.046Z,1010.38
2023-02-24T02:24:37.775Z,1010.36
2023-02-24T02:25:33.043Z,1010.39
2023-02-24T02:26:32.996Z,1010.27
2023-02-24T02:27:32.985Z,1010.27
2023-02-24T02:28:32.978Z,1010.18
2023-02-24T02:29:32.986Z,1010.23
2023-02-24T02:30:32.977Z,1010.23
2023-02-24T02:31:37.815Z,1010.19
2023-02-24T02:32:33.065Z,1010.14
2023-02-24T02:33:32.927Z,1010.14
2023-02-24T02:34:43.985Z,1010.14
2023-02-24T02:35:33.171Z,1010.15
2023-02-24T02:36:32.917Z,1010.11
2023-02-24T02:37:32.886Z,1010.13
2023-02-24T02:38:32.855Z,1010.10
2023-02-24T02:39:32.849Z,1010.18
2023-02-24T02:40:32.849Z,1010.14
2023-02-24T02:41:32.826Z,1010.13
2023-02-24T02:42:32.806Z,1010.12
2023-02-24T02:43:32.859Z,1010.16
2023-02-24T02:44:32.778Z,1010.20
2023-02-24T02:45:32.833Z,1010.12
2023-02-24T02:46:32.778Z,1010.11
2023-02-24T02:47:32.748Z,1010.13
2023-02-24T02:48:32.725Z,1010.16
2023-02-24T02:50:43.704Z,1010.09
2023-02-24T02:51:42.830Z,1010.10
2023-02-24T02:52:42.807Z,1010.10
2023-02-24T02:53:51.338Z,1010.07
2023-02-24T02:54:52.138Z,1010.03
2023-02-24T02:55:42.807Z,1010.02
2023-02-24T02:56:47.509Z,1010.07
2023-02-24T02:57:43.418Z,1009.97
2023-02-24T02:58:43.696Z,1010.09
2023-02-24T02:59:42.731Z,1009.96
2023-02-24T03:00:42.817Z,1009.96
2023-02-24T03:01:42.729Z,1010.01
2023-02-24T03:02:42.708Z,1009.91
2023-02-24T03:03:42.700Z,1009.89
2023-02-24T03:04:42.708Z,1009.97
2023-02-24T03:05:42.653Z,1009.90
2023-02-24T03:06:42.629Z,1009.93
2023-02-24T03:07:43.756Z,1009.87
2023-02-24T03:08:42.612Z,1009.84
2023-02-24T03:09:42.618Z,1009.78
2023-02-24T03:10:42.863Z,1009.78
2023-02-24T03:11:42.583Z,1009.77
2023-02-24T03:12:42.583Z,1009.77
2023-02-24T03:14:54.200Z,1009.72
2023-02-24T03:15:53.498Z,1009.77
2023-02-24T03:16:53.369Z,1009.71
2023-02-24T03:17:53.224Z,1009.73
2023-02-24T03:18:53.261Z,1009.75
2023-02-24T03:19:53.212Z,1009.77
2023-02-24T03:20:53.265Z,1009.74
2023-02-24T03:21:53.177Z,1009.65
2023-02-24T03:22:53.188Z,1009.67
2023-02-24T03:23:53.170Z,1009.67
2023-02-24T03:24:53.147Z,1009.64
2023-02-24T03:25:53.127Z,1009.65
2023-02-24T03:26:53.142Z,1009.60
2023-02-24T03:27:53.130Z,1009.59
2023-02-24T03:28:53.120Z,1009.61
2023-02-24T03:29:53.079Z,1009.62
2023-02-24T03:30:53.125Z,1009.56
2023-02-24T03:31:53.213Z,1009.47
2023-02-24T03:32:53.266Z,1009.52
2023-02-24T03:33:53.045Z,1009.51
2023-02-24T03:34:53.040Z,1009.52
2023-02-24T03:35:53.002Z,1009.42
2023-02-24T03:36:53.000Z,1009.48
2023-02-24T03:37:52.991Z,1009.48
2023-02-24T03:38:53.012Z,1009.49
2023-02-24T03:39:52.962Z,1009.40
2023-02-24T03:40:52.960Z,1009.45
2023-02-24T03:41:52.948Z,1009.40
2023-02-24T03:42:52.932Z,1009.43
2023-02-24T03:43:52.909Z,1009.41
2023-02-24T03:44:52.914Z,1009.39
2023-02-24T03:45:52.988Z,1009.35
2023-02-24T03:46:52.883Z,1009.38
2023-02-24T03:47:52.855Z,1009.39
2023-02-24T03:48:52.849Z,1009.30
2023-02-24T03:49:52.839Z,1009.31
2023-02-24T03:50:52.835Z,1009.32
2023-02-24T03:51:52.816Z,1009.39
2023-02-24T03:52:52.807Z,1009.37
2023-02-24T03:53:52.791Z,1009.30
2023-02-24T03:54:52.784Z,1009.34
2023-02-24T03:55:52.765Z,1009.33
2023-02-24T03:56:52.798Z,1009.33
2023-02-24T03:57:52.728Z,1009.32
2023-02-24T03:58:52.731Z,1009.38
2023-02-24T03:59:52.713Z,1009.31
2023-02-24T04:00:52.711Z,1009.37
2023-02-24T04:01:52.686Z,1009.26
2023-02-24T04:02:52.722Z,1009.30
2023-02-24T04:03:52.658Z,1009.32
2023-02-24T04:04:52.706Z,1009.27
2023-02-24T04:05:52.636Z,1009.26
2023-02-24T04:06:55.818Z,1009.29
2023-02-24T04:07:52.614Z,1009.32
2023-02-24T04:08:52.877Z,1009.38
2023-02-24T04:09:52.597Z,1009.36
2023-02-24T04:10:52.789Z,1009.29
2023-02-24T04:11:53.242Z,1009.31
2023-02-24T04:12:52.880Z,1009.22
2023-02-24T04:13:54.201Z,1009.24
2023-02-24T04:14:53.527Z,1009.26
2023-02-24T04:15:53.343Z,1009.25
2023-02-24T04:16:52.513Z,1009.21
2023-02-24T04:17:53.449Z,1009.22
2023-02-24T04:18:53.431Z,1009.26
2023-02-24T04:19:52.464Z,1009.16
2023-02-24T04:20:53.618Z,1009.25
2023-02-24T04:21:52.457Z,1009.14
2023-02-24T04:22:53.393Z,1009.20
2023-02-24T04:23:52.412Z,1009.09
2023-02-24T04:24:52.425Z,1009.12
2023-02-24T04:25:52.428Z,1009.14
2023-02-24T04:26:52.415Z,1009.04
2023-02-24T04:27:52.374Z,1009.09
2023-02-24T04:28:53.294Z,1009.07
2023-02-24T04:29:52.352Z,1009.12
2023-02-24T04:30:52.397Z,1008.98
2023-02-24T04:31:52.456Z,1009.00
2023-02-24T04:32:52.374Z,1009.04
2023-02-24T04:33:56.123Z,1009.03
2023-02-24T04:34:52.285Z,1008.97
2023-02-24T04:35:52.264Z,1008.93
2023-02-24T04:36:52.256Z,1008.94
2023-02-24T04:37:52.506Z,1008.86
2023-02-24T04:38:52.267Z,1008.88
2023-02-24T04:39:53.167Z,1008.95
2023-02-24T04:40:52.209Z,1008.95
2023-02-24T04:41:52.201Z,1008.88
2023-02-24T04:42:52.213Z,1008.88
2023-02-24T04:43:52.177Z,1008.86
2023-02-24T04:44:52.186Z,1008.84
2023-02-24T04:45:52.147Z,1008.77
2023-02-24T04:46:53.094Z,1008.82
2023-02-24T04:47:52.129Z,1008.83
2023-02-24T04:48:52.132Z,1008.79
2023-02-24T04:49:52.105Z,1008.75
2023-02-24T04:50:52.098Z,1008.80
2023-02-24T04:51:53.021Z,1008.70
2023-02-24T04:52:52.051Z,1008.65
2023-02-24T04:53:52.049Z,1008.62
2023-02-24T04:54:52.028Z,1008.63
2023-02-24T04:55:52.029Z,1008.59
2023-02-24T04:56:52.305Z,1008.64
2023-02-24T04:57:51.998Z,1008.64
2023-02-24T04:58:51.981Z,1008.56
2023-02-24T04:59:51.970Z,1008.53
2023-02-24T05:00:51.967Z,1008.53
2023-02-24T05:01:55.733Z,1008.47
2023-02-24T05:02:56.655Z,1008.51
2023-02-24T05:03:52.931Z,1008.43
2023-02-24T05:04:52.932Z,1008.44
2023-02-24T05:05:51.977Z,1008.49
2023-02-24T05:06:51.892Z,1008.37
2023-02-24T05:07:51.873Z,1008.28
2023-02-24T05:08:51.886Z,1008.34
2023-02-24T05:09:51.854Z,1008.24
2023-02-24T05:10:51.852Z,1008.30
2023-02-24T05:11:52.076Z,1008.23
2023-02-24T05:12:52.056Z,1008.22
2023-02-24T05:13:52.775Z,1008.20
2023-02-24T05:14:52.552Z,1008.19
2023-02-24T05:15:52.809Z,1008.11
2023-02-24T05:16:51.765Z,1008.13
2023-02-24T05:17:51.776Z,1008.14
2023-02-24T05:18:51.738Z,1008.07
2023-02-24T05:19:51.728Z,1008.05
2023-02-24T05:20:53.148Z,1008.10
2023-02-24T05:21:51.718Z,1008.07
2023-02-24T05:22:51.948Z,1007.96
2023-02-24T05:23:51.680Z,1007.92
2023-02-24T05:24:51.662Z,1007.98
2023-02-24T05:25:51.664Z,1007.99
2023-02-24T05:26:51.673Z,1007.95
2023-02-24T05:27:51.631Z,1007.97
2023-02-24T05:28:51.872Z,1007.98
2023-02-24T05:29:52.233Z,1007.85
2023-02-24T05:30:51.647Z,1007.81
2023-02-24T05:31:51.943Z,1007.75
2023-02-24T05:32:51.599Z,1007.71
2023-02-24T05:33:51.564Z,1007.73
2023-02-24T05:34:51.542Z,1007.72
2023-02-24T05:35:51.531Z,1007.70
2023-02-24T05:36:51.512Z,1007.67
2023-02-24T05:37:51.501Z,1007.68
2023-02-24T05:38:51.510Z,1007.63
2023-02-24T05:39:52.432Z,1007.68
2023-02-24T05:40:51.473Z,1007.67
2023-02-24T05:41:51.465Z,1007.65
2023-02-24T05:42:51.440Z,1007.64
2023-02-24T05:43:51.425Z,1007.60
2023-02-24T05:44:51.442Z,1007.60
2023-02-24T05:45:51.402Z,1007.50
2023-02-24T05:46:51.428Z,1007.63
2023-02-24T05:47:51.382Z,1007.63
2023-02-24T05:48:51.615Z,1007.52
2023-02-24T05:49:51.345Z,1007.58
2023-02-24T05:52:13.192Z,1007.47
2023-02-24T05:53:02.565Z,1007.34
2023-02-24T05:54:04.201Z,1007.37
2023-02-24T05:55:02.687Z,1007.44
2023-02-24T05:56:03.645Z,1007.24
2023-02-24T05:57:02.700Z,1007.24
2023-02-24T05:58:07.532Z,1007.26
2023-02-24T05:59:06.655Z,1007.31
2023-02-24T06:00:03.385Z,1007.21
2023-02-24T06:01:02.356Z,1007.33
2023-02-24T06:02:03.295Z,1007.22
2023-02-24T06:03:02.695Z,1007.24
2023-02-24T06:04:04.883Z,1007.16
2023-02-24T06:05:06.072Z,1007.25
2023-02-24T06:06:02.327Z,1007.18
2023-02-24T06:07:05.105Z,1007.12
2023-02-24T06:08:02.291Z,1007.16
2023-02-24T06:09:03.952Z,1007.14
2023-02-24T06:10:02.701Z,1007.16
2023-02-24T06:11:02.250Z,1007.05
2023-02-24T06:12:03.266Z,1007.08
2023-02-24T06:13:02.519Z,1007.16
2023-02-24T06:14:02.471Z,1007.06
2023-02-24T06:15:02.530Z,1007.09
2023-02-24T06:16:02.263Z,1007.08
2023-02-24T06:17:02.154Z,1007.00
2023-02-24T06:18:02.148Z,1007.00
2023-02-24T06:19:02.126Z,1007.04
2023-02-24T06:20:02.125Z,1007.05
2023-02-24T06:21:02.111Z,1006.96
2023-02-24T06:22:02.151Z,1007.01
2023-02-24T06:23:02.085Z,1007.01
2023-02-24T06:24:02.097Z,1006.94
2023-02-24T06:25:02.064Z,1006.96
2023-02-24T06:26:02.313Z,1006.86
2023-02-24T06:27:02.293Z,1006.89
2023-02-24T06:28:03.025Z,1006.93
2023-02-24T06:29:02.028Z,1006.91
2023-02-24T06:30:02.016Z,1006.85
2023-02-24T06:31:02.026Z,1006.75
2023-02-24T06:32:02.399Z,1006.91
2023-02-24T06:33:02.228Z,1006.95
2023-02-24T06:34:02.934Z,1006.80
2023-02-24T06:35:01.938Z,1006.79
2023-02-24T06:36:01.931Z,1006.79
2023-02-24T06:37:02.599Z,1006.79
2023-02-24T06:38:02.861Z,1006.83
2023-02-24T06:39:01.896Z,1006.75
2023-02-24T06:40:01.913Z,1006.74
2023-02-24T06:41:01.887Z,1006.76
2023-02-24T06:42:02.125Z,1006.77
2023-02-24T06:43:01.849Z,1006.81
2023-02-24T06:44:01.838Z,1006.73
2023-02-24T06:45:02.810Z,1006.72
2023-02-24T06:46:01.880Z,1006.79
2023-02-24T06:47:01.795Z,1006.75
2023-02-24T06:48:01.786Z,1006.69
2023-02-24T06:49:01.780Z,1006.76
2023-02-24T06:50:01.753Z,1006.70
2023-02-24T06:51:01.749Z,1006.67
2023-02-24T06:52:01.779Z,1006.74
2023-02-24T06:53:01.729Z,1006.70
2023-02-24T06:54:01.965Z,1006.70
2023-02-24T06:55:01.695Z,1006.75
2023-02-24T06:56:01.677Z,1006.76
2023-02-24T06:57:01.690Z,1006.76
2023-02-24T06:58:01.717Z,1006.73
2023-02-24T06:59:01.661Z,1006.76
2023-02-24T07:00:01.653Z,1006.71
2023-02-24T07:01:01.687Z,1006.71
2023-02-24T07:02:01.599Z,1006.63
2023-02-24T07:03:01.610Z,1006.69
2023-02-24T07:04:01.651Z,1006.70
2023-02-24T07:05:01.652Z,1006.56
2023-02-24T07:06:01.550Z,1006.64
2023-02-24T07:07:01.549Z,1006.57
2023-02-24T07:08:01.527Z,1006.53
2023-02-24T07:09:02.181Z,1006.56
2023-02-24T07:10:02.289Z,1006.41
2023-02-24T07:11:01.499Z,1006.57
2023-02-24T07:12:01.489Z,1006.47
2023-02-24T07:13:01.500Z,1006.49
2023-02-24T07:14:01.712Z,1006.45
2023-02-24T07:15:01.441Z,1006.36
2023-02-24T07:16:01.467Z,1006.40
2023-02-24T07:17:01.488Z,1006.32
2023-02-24T07:18:01.399Z,1006.34
2023-02-24T07:19:01.390Z,1006.33
2023-02-24T07:20:01.423Z,1006.32
2023-02-24T07:21:01.373Z,1006.33
2023-02-24T07:22:01.551Z,1006.32
2023-02-24T07:23:01.441Z,1006.30
2023-02-24T07:24:01.352Z,1006.24
2023-02-24T07:25:01.311Z,1006.28
2023-02-24T07:26:01.303Z,1006.33
2023-02-24T07:27:01.309Z,1006.18
2023-02-24T07:31:38.811Z,1006.21
2023-02-24T07:32:37.827Z,1006.10
2023-02-24T07:33:39.466Z,1006.14
2023-02-24T07:34:37.769Z,1006.15
2023-02-24T07:35:38.586Z,1006.05
2023-02-24T07:36:37.763Z,1006.12
2023-02-24T07:37:37.770Z,1006.06
2023-02-24T07:38:37.728Z,1006.07
2023-02-24T07:39:37.811Z,1006.08
2023-02-24T07:40:37.696Z,1006.05
2023-02-24T07:41:37.981Z,1006.03
2023-02-24T07:42:37.665Z,1006.09
2023-02-24T07:43:37.693Z,1006.04
2023-02-24T07:44:37.651Z,1005.97
2023-02-24T07:45:37.702Z,1006.04
2023-02-24T07:46:37.644Z,1005.98
2023-02-24T07:47:37.616Z,1005.91
2023-02-24T07:48:37.607Z,1005.97
2023-02-24T07:49:37.774Z,1005.93
2023-02-24T07:50:37.567Z,1005.92
2023-02-24T07:51:37.866Z,1005.98
2023-02-24T07:52:37.825Z,1005.89
2023-02-24T07:53:37.562Z,1005.82
2023-02-24T07:54:37.527Z,1005.87
2023-02-24T07:55:37.860Z,1005.86
2023-02-24T07:56:37.496Z,1005.77
2023-02-24T07:57:37.755Z,1005.72
2023-02-24T07:58:37.768Z,1005.85
2023-02-24T07:59:37.504Z,1005.81
2023-02-24T08:00:37.709Z,1005.80
2023-02-24T08:01:37.474Z,1005.76
2023-02-24T08:02:37.444Z,1005.72
2023-02-24T08:03:37.423Z,1005.70
2023-02-24T08:04:37.669Z,1005.76
2023-02-24T08:05:37.749Z,1005.67
2023-02-24T08:06:37.384Z,1005.67
2023-02-24T08:07:37.378Z,1005.69
2023-02-24T08:08:37.352Z,1005.65
2023-02-24T08:09:37.359Z,1005.53
2023-02-24T08:10:37.353Z,1005.62
2023-02-24T08:11:37.336Z,1005.60
2023-02-24T08:12:37.325Z,1005.63
2023-02-24T08:13:46.265Z,1005.50
2023-02-24T08:14:39.011Z,1005.42
2023-02-24T08:15:37.329Z,1005.56
2023-02-24T08:16:37.261Z,1005.52
2023-02-24T08:17:37.522Z,1005.35
2023-02-24T08:18:37.588Z,1005.47
2023-02-24T08:19:37.265Z,1005.52
2023-02-24T08:20:37.200Z,1005.39
2023-02-24T08:21:37.873Z,1005.46
2023-02-24T08:22:37.219Z,1005.37
2023-02-24T08:23:38.381Z,1005.40
2023-02-24T08:24:37.159Z,1005.36
2023-02-24T08:25:37.165Z,1005.40
2023-02-24T08:26:37.148Z,1005.37
2023-02-24T08:27:37.147Z,1005.44
2023-02-24T08:28:37.107Z,1005.31
2023-02-24T08:29:37.096Z,1005.23
2023-02-24T08:30:37.112Z,1005.18
2023-02-24T08:31:37.440Z,1005.22
2023-02-24T08:32:37.230Z,1005.28
2023-02-24T08:33:37.037Z,1005.28
2023-02-24T08:34:37.780Z,1005.25
2023-02-24T08:35:37.027Z,1005.24
2023-02-24T08:36:37.024Z,1005.16
2023-02-24T08:37:37.154Z,1005.20
2023-02-24T08:38:36.994Z,1005.15
2023-02-24T08:39:36.982Z,1005.12
2023-02-24T08:40:37.195Z,1005.13
2023-02-24T08:41:37.197Z,1005.06
2023-02-24T08:42:36.939Z,1005.15
2023-02-24T08:43:37.238Z,1005.10
2023-02-24T08:44:36.922Z,1005.07
2023-02-24T08:45:36.901Z,1005.09
2023-02-24T08:46:37.208Z,1005.10
2023-02-24T08:47:36.877Z,1005.06
2023-02-24T08:48:36.875Z,1005.11
2023-02-24T08:49:37.112Z,1005.02
2023-02-24T08:50:36.840Z,1004.98
2023-02-24T08:51:36.818Z,1004.89
2023-02-24T08:52:36.834Z,1005.04
2023-02-24T08:53:36.846Z,1005.02
2023-02-24T08:54:36.798Z,1004.94
2023-02-24T08:55:36.848Z,1004.97
2023-02-24T08:56:36.757Z,1005.03
2023-02-24T08:57:36.758Z,1004.92
2023-02-24T08:58:36.750Z,1005.01
2023-02-24T08:59:37.031Z,1004.92
2023-02-24T09:00:36.749Z,1004.99
2023-02-24T09:01:36.729Z,1004.80
2023-02-24T09:02:36.705Z,1004.81
2023-02-24T09:03:36.682Z,1004.80
2023-02-24T09:04:36.706Z,1004.81
2023-02-24T09:05:36.690Z,1004.87
2023-02-24T09:06:36.636Z,1004.80
2023-02-24T09:07:36.943Z,1004.86
2023-02-24T09:08:37.344Z,1004.76
2023-02-24T09:09:36.616Z,1004.73
2023-02-24T09:10:38.796Z,1004.78
2023-02-24T09:11:40.452Z,1004.57
2023-02-24T09:12:36.625Z,1004.59
2023-02-24T09:13:37.045Z,1004.64
2023-02-24T09:14:36.775Z,1004.68
2023-02-24T09:15:36.584Z,1004.61
2023-02-24T09:16:36.854Z,1004.65
2023-02-24T09:17:36.789Z,1004.52
2023-02-24T09:18:36.512Z,1004.53
2023-02-24T09:19:36.531Z,1004.46
2023-02-24T09:20:36.490Z,1004.57
2023-02-24T09:21:36.721Z,1004.46
2023-02-24T09:22:36.706Z,1004.42
2023-02-24T09:23:36.437Z,1004.39
2023-02-24T09:24:36.441Z,1004.41
2023-02-24T09:25:42.120Z,1004.46
2023-02-24T09:26:36.687Z,1004.45
2023-02-24T09:27:36.385Z,1004.43
2023-02-24T09:28:36.474Z,1004.38
2023-02-24T09:29:36.616Z,1004.33
2023-02-24T09:30:36.737Z,1004.39
2023-02-24T09:31:37.828Z,1004.32
2023-02-24T09:32:36.475Z,1004.33
2023-02-24T09:33:36.302Z,1004.34
2023-02-24T09:34:36.550Z,1004.23
2023-02-24T09:35:36.299Z,1004.25
2023-02-24T09:36:36.285Z,1004.28
2023-02-24T09:37:36.571Z,1004.27
2023-02-24T09:38:37.210Z,1004.18
2023-02-24T09:39:36.252Z,1004.23
2023-02-24T09:40:36.240Z,1004.28
2023-02-24T09:41:36.263Z,1004.17
2023-02-24T09:42:37.332Z,1004.22
2023-02-24T09:43:36.234Z,1004.14
2023-02-24T09:44:36.187Z,1003.98
2023-02-24T09:45:36.251Z,1003.98
2023-02-24T09:46:36.598Z,1003.97
2023-02-24T09:47:36.151Z,1003.96
2023-02-24T09:48:36.147Z,1003.89
2023-02-24T09:49:36.162Z,1003.90
2023-02-24T09:51:00.917Z,1004.12
2023-02-24T09:51:37.085Z,1004.06
2023-02-24T09:52:36.106Z,1003.92
2023-02-24T09:53:36.089Z,1003.99
2023-02-24T09:54:36.074Z,1003.93
2023-02-24T09:55:36.130Z,1003.88
2023-02-24T09:56:36.012Z,1003.79
2023-02-24T09:57:36.065Z,1003.83
2023-02-24T09:58:43.706Z,1003.87
2023-02-24T09:59:37.004Z,1003.87
2023-02-24T10:00:35.978Z,1003.79
2023-02-24T10:01:36.362Z,1003.74
2023-02-24T10:02:39.921Z,1003.83
2023-02-24T10:03:35.936Z,1003.85
2023-02-24T10:04:35.937Z,1003.78
2023-02-24T10:05:36.165Z,1003.76
2023-02-24T10:06:35.897Z,1003.74
2023-02-24T10:07:35.921Z,1003.72
2023-02-24T10:08:35.888Z,1003.74
2023-02-24T10:09:35.866Z,1003.77
2023-02-24T10:10:36.098Z,1003.59
2023-02-24T10:11:36.092Z,1003.63
2023-02-24T10:12:36.071Z,1003.59
2023-02-24T10:14:51.627Z,1003.49
2023-02-24T10:15:48.729Z,1003.51
2023-02-24T10:16:48.793Z,1003.47
2023-02-24T10:17:48.428Z,1003.50
2023-02-24T10:18:48.421Z,1003.52
2023-02-24T10:19:48.663Z,1003.44
2023-02-24T10:20:48.693Z,1003.48
2023-02-24T10:21:52.148Z,1003.44
2023-02-24T10:22:49.092Z,1003.52
2023-02-24T10:23:48.442Z,1003.37
2023-02-24T10:24:48.598Z,1003.41
2023-02-24T10:25:48.338Z,1003.26
2023-02-24T10:27:00.438Z,1003.26
2023-02-24T10:27:49.280Z,1003.35
2023-02-24T10:28:52.073Z,1003.29
2023-02-24T10:29:48.302Z,1003.21
2023-02-24T10:30:48.386Z,1003.19
2023-02-24T10:31:48.559Z,1003.17
2023-02-24T10:32:48.421Z,1003.13
2023-02-24T10:33:48.462Z,1003.25
2023-02-24T10:34:48.223Z,1003.18
2023-02-24T10:35:48.442Z,1003.16
2023-02-24T10:36:48.205Z,1003.13
2023-02-24T10:37:48.424Z,1003.10
2023-02-24T10:38:48.156Z,1003.09
2023-02-24T10:39:50.239Z,1003.17
2023-02-24T10:40:48.144Z,1003.06
2023-02-24T10:41:48.186Z,1003.00
2023-02-24T10:42:48.136Z,1003.03
2023-02-24T10:43:48.403Z,1003.02
2023-02-24T10:46:05.074Z,1002.97
2023-02-24T10:47:09.420Z,1003.09
2023-02-24T10:48:11.976Z,1002.94
2023-02-24T10:49:04.868Z,1002.99
2023-02-24T10:50:05.141Z,1002.99
2023-02-24T10:51:05.640Z,1002.87
2023-02-24T10:52:05.868Z,1002.89
2023-02-24T10:53:08.391Z,1002.93
2023-02-24T10:54:11.224Z,1002.85
2023-02-24T10:55:06.431Z,1002.85
2023-02-24T10:56:09.515Z,1002.86
2023-02-24T10:57:09.866Z,1002.81
2023-02-24T10:58:06.336Z,1002.76
2023-02-24T10:59:06.571Z,1002.80
2023-02-24T11:00:04.769Z,1002.82
2023-02-24T11:01:10.162Z,1002.71
2023-02-24T11:02:05.028Z,1002.78
2023-02-24T11:03:09.590Z,1002.77
2023-02-24T11:04:10.861Z,1002.74
2023-02-24T11:05:28.830Z,1002.72
2023-02-24T11:06:07.226Z,1002.59
2023-02-24T11:07:08.400Z,1002.67
2023-02-24T11:08:17.294Z,1002.70
2023-02-24T11:09:04.737Z,1002.70
2023-02-24T11:10:08.931Z,1002.56
2023-02-24T11:11:04.808Z,1002.51
2023-02-24T11:12:04.797Z,1002.52
2023-02-24T11:13:10.319Z,1002.62
2023-02-24T11:14:04.994Z,1002.55
2023-02-24T11:15:06.264Z,1002.49
2023-02-24T11:16:05.103Z,1002.46
2023-02-24T11:17:04.645Z,1002.31
2023-02-24T11:18:04.603Z,1002.42
2023-02-24T11:19:07.592Z,1002.39
2023-02-24T11:20:04.755Z,1002.42
2023-02-24T11:21:31.918Z,1002.22
2023-02-24T11:22:08.548Z,1002.30
2023-02-24T11:23:06.710Z,1002.30
2023-02-24T11:24:07.549Z,1002.23
2023-02-24T11:25:07.687Z,1002.24
2023-02-24T11:26:05.815Z,1002.27
2023-02-24T11:27:04.832Z,1002.34
2023-02-24T11:28:04.797Z,1002.25
2023-02-24T11:29:04.361Z,1002.20
2023-02-24T11:30:04.355Z,1002.15
2023-02-24T11:31:04.475Z,1002.24
2023-02-24T11:32:04.410Z,1002.24
2023-02-24T11:33:04.342Z,1002.15
2023-02-24T11:34:04.308Z,1002.14
2023-02-24T11:35:04.553Z,1002.09
2023-02-24T11:36:04.261Z,1002.08
2023-02-24T11:37:04.523Z,1002.06
2023-02-24T11:38:04.520Z,1002.01
2023-02-24T11:39:17.184Z,1001.94
2023-02-24T11:40:05.234Z,1002.00
2023-02-24T11:41:04.212Z,1002.03
2023-02-24T11:42:05.175Z,1002.00
2023-02-24T11:43:04.185Z,1001.97
2023-02-24T11:44:04.195Z,1001.93
2023-02-24T11:45:04.506Z,1001.95
2023-02-24T11:46:15.408Z,1001.96
2023-02-24T11:47:04.410Z,1001.92
2023-02-24T11:48:05.072Z,1001.89
2023-02-24T11:49:04.107Z,1001.75
2023-02-24T11:50:05.219Z,1001.80
2023-02-24T11:51:04.122Z,1001.83
2023-02-24T11:52:04.811Z,1001.82
2023-02-24T11:53:04.078Z,1001.93
2023-02-24T11:54:04.319Z,1001.83
2023-02-24T11:55:04.032Z,1001.85
2023-02-24T11:56:04.781Z,1001.78
2023-02-24T11:57:04.030Z,1001.72
2023-02-24T11:58:03.997Z,1001.74
2023-02-24T11:59:03.980Z,1001.78
2023-02-24T12:00:03.986Z,1001.75
2023-02-24T12:01:03.954Z,1001.71
2023-02-24T12:02:07.890Z,1001.66
2023-02-24T12:03:04.458Z,1001.70
2023-02-24T12:04:03.925Z,1001.76
2023-02-24T12:05:03.975Z,1001.68
2023-02-24T12:06:03.920Z,1001.72
2023-02-24T12:07:05.772Z,1001.64
2023-02-24T12:08:03.880Z,1001.62
2023-02-24T12:09:03.883Z,1001.70
2023-02-24T12:10:16.083Z,1001.61
2023-02-24T12:11:04.844Z,1001.60
2023-02-24T12:12:03.814Z,1001.62
2023-02-24T12:13:03.826Z,1001.53
2023-02-24T12:14:03.793Z,1001.58
2023-02-24T12:15:03.821Z,1001.56
2023-02-24T12:16:03.795Z,1001.54
2023-02-24T12:17:03.756Z,1001.50
2023-02-24T12:18:03.770Z,1001.49
2023-02-24T12:19:03.737Z,1001.49
2023-02-24T12:20:03.705Z,1001.41
2023-02-24T12:21:03.726Z,1001.41